Time;durP1;ratioP1;P1;durP2;ratioP2;P2;SDS_P1;SDS_P2;PMS_P1;PMS_P2;Temp;Humidity;BMP_temperature;BMP_pressure;BME280_temperature;BME280_humidity;BME280_pressure;Samples;Min_cycle;Max_cycle;Signal;HPM_P1;HPM_P2
2023/01/20 00:02:13;;;;;;;7.25;5.18;;;2.80;99.90;;;;;;5117010;28;20044;-73
2023/01/20 00:04:38;;;;;;;5.57;5.07;;;2.80;99.90;;;;;;5116916;28;20086;-73
2023/01/20 00:07:04;;;;;;;5.10;4.43;;;2.80;99.90;;;;;;5117297;28;20032;-74
2023/01/20 00:09:29;;;;;;;10.02;5.30;;;2.90;99.90;;;;;;5116959;28;20118;-73
2023/01/20 00:11:55;;;;;;;8.95;5.22;;;2.90;99.90;;;;;;5117256;28;20040;-73
2023/01/20 00:14:21;;;;;;;7.47;4.68;;;2.90;99.90;;;;;;5117180;28;20062;-73
2023/01/20 00:16:46;;;;;;;6.95;4.20;;;2.80;99.90;;;;;;5117207;28;20301;-73
2023/01/20 00:19:13;;;;;;;5.07;4.38;;;2.80;99.90;;;;;;5116741;28;20092;-73
2023/01/20 00:21:39;;;;;;;4.18;3.83;;;2.80;99.90;;;;;;5117110;28;20046;-73
2023/01/20 00:24:05;;;;;;;5.43;3.78;;;2.80;99.90;;;;;;5116826;28;20043;-73
2023/01/20 00:26:31;;;;;;;4.55;4.13;;;2.80;99.90;;;;;;5117160;28;20458;-73
2023/01/20 00:28:57;;;;;;;7.65;4.32;;;2.90;99.90;;;;;;5117049;28;20101;-74
2023/01/20 00:31:27;;;;;;;4.82;4.18;;;2.80;99.90;;;;;;5117001;28;20031;-73
2023/01/20 00:33:55;;;;;;;5.93;4.40;;;2.70;99.90;;;;;;5116818;28;20047;-73
2023/01/20 00:36:22;;;;;;;10.00;4.72;;;2.70;99.90;;;;;;5116998;28;20036;-73
2023/01/20 00:38:48;;;;;;;6.50;5.05;;;2.80;99.90;;;;;;5115978;28;20397;-73
2023/01/20 00:41:15;;;;;;;6.68;5.43;;;2.80;99.90;;;;;;5116968;28;20078;-73
2023/01/20 00:43:40;;;;;;;8.88;6.82;;;2.80;99.90;;;;;;5115878;28;20048;-73
2023/01/20 00:46:06;;;;;;;6.90;6.20;;;2.70;99.90;;;;;;5116827;28;20055;-73
2023/01/20 00:48:33;;;;;;;8.98;6.70;;;2.60;99.90;;;;;;5116203;28;20042;-73
2023/01/20 00:51:00;;;;;;;8.10;6.38;;;2.70;99.90;;;;;;5116936;28;20321;-74
2023/01/20 00:53:25;;;;;;;8.98;6.57;;;2.60;99.90;;;;;;5116813;28;20035;-73
2023/01/20 00:55:51;;;;;;;6.85;6.25;;;2.70;99.90;;;;;;5116853;28;20046;-73
2023/01/20 00:58:17;;;;;;;6.88;6.18;;;2.60;99.90;;;;;;5115526;28;20040;-73
2023/01/20 01:00:46;;;;;;;6.97;6.30;;;2.70;99.90;;;;;;5116537;28;20043;-73
2023/01/20 01:03:12;;;;;;;7.75;5.90;;;2.80;99.90;;;;;;5116782;28;20096;-73
2023/01/20 01:05:37;;;;;;;7.20;5.88;;;2.80;99.90;;;;;;5115799;28;20048;-73
2023/01/20 01:08:04;;;;;;;7.30;6.47;;;2.90;99.90;;;;;;5102479;28;20043;-73
2023/01/20 01:10:29;;;;;;;6.40;5.72;;;2.80;99.90;;;;;;5119532;28;20042;-73
2023/01/20 01:12:57;;;;;;;7.45;6.03;;;2.90;99.90;;;;;;5120433;28;20041;-73
2023/01/20 01:15:23;;;;;;;8.70;6.30;;;2.90;99.90;;;;;;5120348;28;20111;-73
2023/01/20 01:17:48;;;;;;;10.25;6.70;;;2.80;99.90;;;;;;5120395;28;20393;-73
2023/01/20 01:20:14;;;;;;;7.72;5.90;;;2.80;99.90;;;;;;5118665;28;20050;-73
2023/01/20 01:22:40;;;;;;;8.57;6.53;;;2.80;99.90;;;;;;5120295;28;20059;-73
2023/01/20 01:25:06;;;;;;;8.85;6.70;;;2.80;99.90;;;;;;5119734;28;20093;-73
2023/01/20 01:27:31;;;;;;;6.75;5.65;;;2.80;99.90;;;;;;5120153;28;20043;-73
2023/01/20 01:29:57;;;;;;;12.43;7.85;;;2.90;99.90;;;;;;5119844;28;20039;-73
2023/01/20 01:32:23;;;;;;;13.32;8.43;;;2.90;99.90;;;;;;5119735;28;20100;-73
2023/01/20 01:34:48;;;;;;;8.70;7.10;;;2.90;99.90;;;;;;5120031;28;20046;-73
2023/01/20 01:37:14;;;;;;;10.88;7.93;;;2.90;99.90;;;;;;5118640;28;20086;-73
2023/01/20 01:39:40;;;;;;;10.98;7.65;;;2.80;99.90;;;;;;5118621;28;20051;-73
2023/01/20 01:42:14;;;;;;;10.45;8.18;;;2.80;99.90;;;;;;5118581;28;20051;-73
2023/01/20 01:45:08;;;;;;;11.35;7.90;;;2.80;99.90;;;;;;5119506;28;20142;-73
2023/01/20 01:47:39;;;;;;;11.52;7.82;;;2.80;99.90;;;;;;5116780;28;20453;-73
2023/01/20 01:50:06;;;;;;;9.88;7.43;;;2.80;99.90;;;;;;5118990;28;20032;-73
2023/01/20 01:52:32;;;;;;;12.48;8.65;;;2.80;99.90;;;;;;5119687;28;20085;-73
2023/01/20 01:54:58;;;;;;;11.18;7.60;;;2.70;99.90;;;;;;5119340;28;20497;-73
2023/01/20 01:57:25;;;;;;;11.00;8.35;;;2.60;99.90;;;;;;5119577;28;20039;-73
2023/01/20 01:59:50;;;;;;;9.93;7.63;;;2.70;99.90;;;;;;5119489;28;20042;-73
2023/01/20 02:02:18;;;;;;;15.35;10.05;;;2.70;99.90;;;;;;5118183;28;20043;-73
2023/01/20 02:04:43;;;;;;;18.50;12.15;;;2.80;99.90;;;;;;5118058;28;20079;-73
2023/01/20 02:07:15;;;;;;;17.48;10.88;;;2.90;99.90;;;;;;5119401;28;20094;-73
2023/01/20 02:09:41;;;;;;;20.80;11.98;;;2.80;99.90;;;;;;5119377;27;20079;-73
2023/01/20 02:12:18;;;;;;;17.02;11.25;;;2.70;99.90;;;;;;5119070;28;20070;-73
2023/01/20 02:14:48;;;;;;;20.15;13.43;;;2.80;99.90;;;;;;5119170;28;20044;-73
2023/01/20 02:17:24;;;;;;;19.55;11.75;;;2.90;99.90;;;;;;5117025;28;20107;-73
2023/01/20 02:20:14;;;;;;;19.23;12.43;;;2.90;99.90;;;;;;5118800;28;20122;-73
2023/01/20 02:23:02;;;;;;;20.23;13.00;;;3.00;99.90;;;;;;5119078;28;20050;-73
2023/01/20 02:25:48;;;;;;;24.48;13.60;;;3.00;99.90;;;;;;5118675;28;20054;-73
2023/01/20 02:28:22;;;;;;;20.77;13.63;;;2.90;99.90;;;;;;5118735;28;20040;-74
2023/01/20 02:31:09;;;;;;;25.02;14.10;;;2.90;99.90;;;;;;5118990;28;20119;-73
2023/01/20 02:34:05;;;;;;;24.02;15.73;;;2.90;99.90;;;;;;5118592;28;20435;-73
2023/01/20 02:36:42;;;;;;;27.80;17.02;;;2.80;99.90;;;;;;5118874;28;20039;-73
2023/01/20 02:39:22;;;;;;;24.42;17.92;;;2.80;99.90;;;;;;5118797;28;20081;-73
2023/01/20 02:42:25;;;;;;;25.27;18.50;;;2.80;99.90;;;;;;5118708;28;20063;-73
2023/01/20 02:45:07;;;;;;;25.27;19.13;;;2.70;99.90;;;;;;5118579;28;20367;-73
2023/01/20 02:47:41;;;;;;;20.80;18.10;;;2.70;99.90;;;;;;5118629;28;20054;-73
2023/01/20 02:50:43;;;;;;;26.00;19.13;;;2.70;99.90;;;;;;5118219;28;20106;-73
2023/01/20 02:53:11;;;;;;;21.55;17.55;;;2.70;99.90;;;;;;5118137;28;20044;-73
2023/01/20 02:55:47;;;;;;;26.70;19.00;;;2.70;99.90;;;;;;5118121;28;20035;-73
2023/01/20 02:58:18;;;;;;;21.38;18.95;;;2.70;99.90;;;;;;5117065;28;20051;-73
2023/01/20 03:00:50;;;;;;;23.27;19.30;;;2.80;99.90;;;;;;5118394;28;20035;-73
2023/01/20 03:03:21;;;;;;;24.35;19.60;;;2.80;99.90;;;;;;5118337;28;20049;-73
2023/01/20 03:06:00;;;;;;;24.92;20.38;;;2.90;99.90;;;;;;5118525;28;20408;-73
2023/01/20 03:08:29;;;;;;;22.52;19.60;;;3.00;99.90;;;;;;5117960;28;20445;-73
2023/01/20 03:11:00;;;;;;;26.50;20.58;;;3.00;99.90;;;;;;5118193;28;20039;-73
2023/01/20 03:13:32;;;;;;;22.55;19.83;;;3.10;99.90;;;;;;5117892;28;20412;-73
2023/01/20 03:16:01;;;;;;;25.63;20.02;;;3.10;99.90;;;;;;5118076;28;20039;-73
2023/01/20 03:18:32;;;;;;;29.00;21.45;;;2.80;99.90;;;;;;5117304;28;20337;-73
2023/01/20 03:20:59;;;;;;;28.83;20.98;;;2.90;99.90;;;;;;5117965;28;20078;-73
2023/01/20 03:23:26;;;;;;;27.65;20.17;;;2.90;99.90;;;;;;5117959;28;20105;-73
2023/01/20 03:25:53;;;;;;;25.77;20.90;;;2.90;99.90;;;;;;5117359;28;20052;-73
2023/01/20 03:28:19;;;;;;;29.13;21.48;;;2.90;99.90;;;;;;5117664;28;20046;-73
2023/01/20 03:30:45;;;;;;;27.83;20.70;;;2.80;99.90;;;;;;5117769;28;20031;-73
2023/01/20 03:33:12;;;;;;;33.33;21.58;;;2.80;99.90;;;;;;5117724;28;20039;-73
2023/01/20 03:35:39;;;;;;;35.05;22.13;;;2.80;99.90;;;;;;5117728;28;20043;-73
2023/01/20 03:38:05;;;;;;;26.10;20.65;;;2.90;99.90;;;;;;5116337;28;20043;-73
2023/01/20 03:40:55;;;;;;;31.50;22.15;;;2.90;99.90;;;;;;5117327;28;20092;-73
2023/01/20 03:43:50;;;;;;;33.35;23.90;;;3.00;99.90;;;;;;5116767;28;20054;-73
2023/01/20 03:46:28;;;;;;;33.13;24.55;;;3.00;99.90;;;;;;5116760;28;20468;-73
2023/01/20 03:49:21;;;;;;;32.67;24.52;;;2.90;99.90;;;;;;5117177;28;20043;-73
2023/01/20 03:52:10;;;;;;;35.85;25.15;;;2.90;99.90;;;;;;5085049;28;20052;-73
2023/01/20 03:54:44;;;;;;;37.88;27.55;;;3.00;99.90;;;;;;5117564;28;20031;-73
2023/01/20 03:57:38;;;;;;;48.00;28.83;;;3.10;99.90;;;;;;5117414;28;20036;-73
2023/01/20 04:00:07;;;;;;;39.17;27.25;;;3.00;99.90;;;;;;5115708;28;20104;-73
2023/01/20 04:02:35;;;;;;;41.65;27.15;;;3.00;99.90;;;;;;5117322;28;20047;-73
2023/01/20 04:05:02;;;;;;;38.90;26.42;;;3.10;99.90;;;;;;5116006;28;20441;-73
2023/01/20 04:07:30;;;;;;;44.70;27.42;;;2.90;99.90;;;;;;5117283;28;20036;-73
2023/01/20 04:10:02;;;;;;;34.00;23.77;;;2.90;99.90;;;;;;5116971;28;20417;-73
2023/01/20 04:12:28;;;;;;;33.67;23.80;;;2.70;99.90;;;;;;5117266;28;20035;-73
2023/01/20 04:14:53;;;;;;;36.75;24.73;;;2.60;99.90;;;;;;5117224;28;20046;-73
2023/01/20 04:17:20;;;;;;;33.20;24.00;;;2.70;99.90;;;;;;5116936;28;20122;-73
2023/01/20 04:19:45;;;;;;;40.25;26.05;;;2.70;99.90;;;;;;5116788;28;20040;-73
2023/01/20 04:22:46;;;;;;;34.55;24.45;;;2.70;99.90;;;;;;5116085;28;20055;-73
2023/01/20 04:25:26;;;;;;;37.45;24.48;;;2.60;99.90;;;;;;5093973;28;20058;-73
2023/01/20 04:27:52;;;;;;;36.97;23.42;;;2.50;99.90;;;;;;5117152;28;20112;-72
2023/01/20 04:30:18;;;;;;;34.58;23.80;;;2.40;99.90;;;;;;5117131;28;20039;-73
2023/01/20 04:32:43;;;;;;;38.53;23.88;;;2.40;99.90;;;;;;5117078;28;20444;-73
2023/01/20 04:35:14;;;;;;;38.72;23.45;;;2.50;99.90;;;;;;5117034;28;20035;-73
2023/01/20 04:37:40;;;;;;;31.17;22.05;;;2.70;99.90;;;;;;5108175;28;20067;-74
2023/01/20 04:40:06;;;;;;;36.72;24.13;;;2.70;99.90;;;;;;5116267;28;20031;-73
2023/01/20 04:42:32;;;;;;;38.97;24.92;;;2.80;99.90;;;;;;5120643;28;20033;-73
2023/01/20 04:44:57;;;;;;;43.03;25.75;;;2.80;99.90;;;;;;5120681;28;20040;-73
2023/01/20 04:47:23;;;;;;;37.13;23.75;;;2.70;99.90;;;;;;5120985;28;20039;-73
2023/01/20 04:49:49;;;;;;;32.90;22.73;;;2.70;99.90;;;;;;5120613;28;20038;-73
2023/01/20 04:52:16;;;;;;;35.22;23.88;;;2.80;99.90;;;;;;5120950;28;20478;-73
2023/01/20 04:54:41;;;;;;;37.08;23.20;;;2.70;99.90;;;;;;5120866;28;20031;-73
2023/01/20 04:57:07;;;;;;;37.95;23.13;;;2.70;99.90;;;;;;5120800;27;20032;-73
2023/01/20 04:59:33;;;;;;;35.83;23.35;;;2.60;99.90;;;;;;5120857;28;20032;-73
2023/01/20 05:01:58;;;;;;;36.90;24.05;;;2.70;99.90;;;;;;5119684;28;20043;-73
2023/01/20 05:04:24;;;;;;;38.85;23.45;;;2.70;99.90;;;;;;5120662;28;20031;-73
2023/01/20 05:06:50;;;;;;;36.58;22.42;;;2.60;99.90;;;;;;5119336;28;20355;-73
2023/01/20 05:09:15;;;;;;;31.45;21.63;;;2.60;99.90;;;;;;5120623;28;20063;-73
2023/01/20 05:11:42;;;;;;;32.00;22.38;;;2.60;99.90;;;;;;5120591;28;20047;-73
2023/01/20 05:14:09;;;;;;;35.63;22.50;;;2.60;99.90;;;;;;5119561;28;20031;-73
2023/01/20 05:16:35;;;;;;;35.67;22.48;;;2.70;99.90;;;;;;5120439;28;20114;-73
2023/01/20 05:19:04;;;;;;;38.55;22.52;;;2.80;99.90;;;;;;5119990;28;20059;-73
2023/01/20 05:21:29;;;;;;;33.95;22.13;;;2.90;99.90;;;;;;5119070;28;20074;-73
2023/01/20 05:23:55;;;;;;;32.33;22.08;;;2.80;99.90;;;;;;5120106;28;20073;-73
2023/01/20 05:26:23;;;;;;;35.55;23.05;;;2.60;99.90;;;;;;5120333;28;20052;-73
2023/01/20 05:28:48;;;;;;;36.70;22.70;;;2.50;99.90;;;;;;5119887;28;20396;-73
2023/01/20 05:31:14;;;;;;;41.55;23.63;;;2.60;99.90;;;;;;5120243;28;20039;-73
2023/01/20 05:33:40;;;;;;;39.08;22.27;;;2.80;99.90;;;;;;5120198;28;20339;-73
2023/01/20 05:36:07;;;;;;;35.28;22.15;;;2.60;99.90;;;;;;5120155;28;20028;-73
2023/01/20 05:38:32;;;;;;;33.55;21.17;;;2.60;99.90;;;;;;5118742;28;20048;-73
2023/01/20 05:41:03;;;;;;;33.40;21.15;;;2.80;99.90;;;;;;5120004;27;20089;-73
2023/01/20 05:43:29;;;;;;;39.38;22.25;;;2.60;99.90;;;;;;5120012;28;20039;-73
2023/01/20 05:45:54;;;;;;;38.67;23.58;;;2.70;99.90;;;;;;5119592;28;20468;-73
2023/01/20 05:48:20;;;;;;;38.80;23.30;;;2.70;99.90;;;;;;5119471;28;20036;-73
2023/01/20 05:50:46;;;;;;;37.75;22.77;;;2.70;99.90;;;;;;5119838;28;20114;-73
2023/01/20 05:53:12;;;;;;;33.22;21.05;;;2.70;99.90;;;;;;5119389;28;20054;-73
2023/01/20 05:55:38;;;;;;;35.75;22.08;;;2.60;99.90;;;;;;5119759;28;20085;-73
2023/01/20 05:58:04;;;;;;;36.20;21.52;;;2.70;99.90;;;;;;5119398;28;20458;-73
2023/01/20 06:00:30;;;;;;;37.13;22.48;;;2.70;99.90;;;;;;5119330;28;20035;-73
2023/01/20 06:02:57;;;;;;;39.30;22.08;;;2.40;99.90;;;;;;5135403;27;20036;-73
2023/01/20 06:05:22;;;;;;;36.67;21.25;;;2.30;99.90;;;;;;5119186;28;20427;-73
2023/01/20 06:07:48;;;;;;;35.85;21.33;;;2.20;99.90;;;;;;5119479;28;20071;-73
2023/01/20 06:10:15;;;;;;;40.45;20.70;;;2.10;99.90;;;;;;5119150;28;20424;-73
2023/01/20 06:12:41;;;;;;;38.88;22.42;;;2.20;99.90;;;;;;5119381;28;20054;-73
2023/01/20 06:15:07;;;;;;;37.15;21.65;;;2.10;99.90;;;;;;5119369;28;20040;-72
2023/01/20 06:17:34;;;;;;;41.40;21.33;;;2.20;99.90;;;;;;5119028;28;20393;-73
2023/01/20 06:19:59;;;;;;;35.60;21.27;;;2.30;99.90;;;;;;5118882;28;20032;-73
2023/01/20 06:22:26;;;;;;;39.40;23.42;;;2.30;99.90;;;;;;5118894;28;20037;-73
2023/01/20 06:24:52;;;;;;;37.88;21.80;;;2.40;99.90;;;;;;5118645;28;20096;-73
2023/01/20 06:27:18;;;;;;;42.05;21.98;;;2.30;99.90;;;;;;5119109;28;20039;-72
2023/01/20 06:29:44;;;;;;;37.88;21.85;;;2.20;99.90;;;;;;5119035;28;20036;-73
2023/01/20 06:32:10;;;;;;;40.13;21.98;;;2.10;99.90;;;;;;5119052;28;20354;-73
2023/01/20 06:34:36;;;;;;;41.03;22.65;;;2.10;99.90;;;;;;5118924;28;20035;-73
2023/01/20 06:37:02;;;;;;;39.47;22.08;;;2.00;99.90;;;;;;5118605;28;20088;-73
2023/01/20 06:39:28;;;;;;;42.85;22.88;;;2.10;99.90;;;;;;5118724;28;20052;-72
2023/01/20 06:41:57;;;;;;;37.47;21.35;;;2.10;99.90;;;;;;5118821;28;20114;-73
2023/01/20 06:44:24;;;;;;;38.05;21.67;;;1.90;99.90;;;;;;5118700;28;20111;-73
2023/01/20 06:46:50;;;;;;;39.05;22.25;;;1.90;99.90;;;;;;5118690;28;20035;-72
2023/01/20 06:49:16;;;;;;;34.33;20.73;;;1.90;99.90;;;;;;5116950;28;20063;-73
2023/01/20 06:51:42;;;;;;;36.38;21.60;;;1.80;99.90;;;;;;5100389;28;20231;-72
2023/01/20 06:54:08;;;;;;;41.88;23.98;;;1.90;99.90;;;;;;5118315;28;20027;-72
2023/01/20 06:56:34;;;;;;;40.72;22.88;;;2.00;99.90;;;;;;5118473;28;20063;-72
2023/01/20 06:58:59;;;;;;;36.63;22.35;;;2.00;99.90;;;;;;5118509;28;20304;-73
2023/01/20 07:01:27;;;;;;;40.13;23.00;;;2.10;99.90;;;;;;5118432;28;20035;-73
2023/01/20 07:03:54;;;;;;;36.38;22.02;;;2.00;99.90;;;;;;5116629;28;20073;-73
2023/01/20 07:06:39;;;;;;;41.13;23.95;;;1.90;99.90;;;;;;5118281;28;20093;-73
2023/01/20 07:09:07;;;;;;;40.60;23.42;;;2.00;99.90;;;;;;5118295;28;20028;-73
2023/01/20 07:11:34;;;;;;;38.28;23.38;;;2.10;99.90;;;;;;5116869;28;20036;-73
2023/01/20 07:14:01;;;;;;;41.20;23.23;;;1.90;99.90;;;;;;5118242;28;20030;-73
2023/01/20 07:16:26;;;;;;;44.50;24.33;;;1.80;99.90;;;;;;5100034;28;20035;-73
2023/01/20 07:18:53;;;;;;;39.28;23.88;;;1.80;99.90;;;;;;5117713;28;20096;-73
2023/01/20 07:21:19;;;;;;;45.90;24.60;;;2.00;99.90;;;;;;5118075;28;20027;-73
2023/01/20 07:23:45;;;;;;;39.97;22.27;;;1.90;99.90;;;;;;5117720;28;20088;-73
2023/01/20 07:26:17;;;;;;;45.33;24.63;;;1.90;99.90;;;;;;5117448;28;20122;-73
2023/01/20 07:28:43;;;;;;;46.78;25.48;;;1.90;99.90;;;;;;5117621;28;20047;-73
2023/01/20 07:31:11;;;;;;;43.58;24.48;;;2.00;99.90;;;;;;5116905;28;20038;-73
2023/01/20 07:33:37;;;;;;;43.80;23.98;;;2.00;99.90;;;;;;5117871;28;20106;-73
2023/01/20 07:36:04;;;;;;;43.25;24.38;;;2.10;99.90;;;;;;5117806;28;20035;-73
2023/01/20 07:38:30;;;;;;;50.38;25.88;;;2.10;99.90;;;;;;5117812;28;20035;-74
2023/01/20 07:41:00;;;;;;;47.25;25.88;;;2.10;99.90;;;;;;5116666;28;20423;-74
2023/01/20 07:43:26;;;;;;;46.45;25.15;;;2.20;99.90;;;;;;5117402;28;20496;-73
2023/01/20 07:45:56;;;;;;;48.88;25.67;;;2.10;99.90;;;;;;5117603;28;20043;-73
2023/01/20 07:48:22;;;;;;;53.90;26.48;;;1.80;99.90;;;;;;5116332;28;20031;-88
2023/01/20 07:50:48;;;;;;;46.72;25.10;;;1.70;99.90;;;;;;5117587;28;20417;-73
2023/01/20 07:53:13;;;;;;;47.22;24.80;;;1.90;99.90;;;;;;5133380;27;20036;-73
2023/01/20 07:55:39;;;;;;;48.67;26.23;;;1.90;99.90;;;;;;5117548;28;20031;-73
2023/01/20 07:58:04;;;;;;;46.60;26.23;;;2.00;99.90;;;;;;5116439;28;20374;-73
2023/01/20 08:00:30;;;;;;;46.53;24.90;;;2.00;99.90;;;;;;5117518;28;20356;-74
2023/01/20 08:02:56;;;;;;;51.00;27.25;;;2.00;99.90;;;;;;5116446;28;20444;-74
2023/01/20 08:05:21;;;;;;;51.33;28.00;;;2.00;99.90;;;;;;5117341;28;20384;-73
2023/01/20 08:07:51;;;;;;;55.42;25.70;;;2.10;99.90;;;;;;5117112;28;20111;-73
2023/01/20 08:10:17;;;;;;;45.88;24.23;;;2.10;99.90;;;;;;5117382;28;20031;-74
2023/01/20 08:12:42;;;;;;;47.13;25.83;;;2.10;99.90;;;;;;5117352;28;20035;-73
2023/01/20 08:15:09;;;;;;;42.17;22.77;;;2.10;99.90;;;;;;5117311;28;20036;-74
2023/01/20 08:17:34;;;;;;;52.28;26.42;;;2.10;99.90;;;;;;5119945;28;20039;-74
2023/01/20 08:20:00;;;;;;;57.08;27.25;;;2.00;99.90;;;;;;5121201;28;20032;-74
2023/01/20 08:22:25;;;;;;;49.78;26.60;;;2.20;99.90;;;;;;5121191;28;20092;-75
2023/01/20 08:24:51;;;;;;;50.15;26.23;;;2.20;99.90;;;;;;5119872;28;20051;-74
2023/01/20 08:27:17;;;;;;;46.70;26.50;;;2.40;99.90;;;;;;5119440;28;20035;-74
2023/01/20 08:29:43;;;;;;;54.55;27.25;;;2.60;99.90;;;;;;5120889;28;20046;-75
2023/01/20 08:32:08;;;;;;;45.35;25.10;;;2.50;99.90;;;;;;5120120;28;20039;-74
2023/01/20 08:34:34;;;;;;;48.85;24.80;;;2.20;99.90;;;;;;5119688;28;20164;-74
2023/01/20 08:37:00;;;;;;;50.72;25.63;;;2.40;99.90;;;;;;5120965;27;20092;-74
2023/01/20 08:39:25;;;;;;;46.63;24.00;;;2.40;99.90;;;;;;5119985;28;20036;-74
2023/01/20 08:41:51;;;;;;;51.78;24.38;;;2.30;99.90;;;;;;5121175;28;20032;-73
2023/01/20 08:44:19;;;;;;;52.70;27.30;;;2.20;99.90;;;;;;5120823;28;20108;-79
2023/01/20 08:46:44;;;;;;;50.10;25.50;;;2.30;99.90;;;;;;5120064;28;20075;-74
2023/01/20 08:49:14;;;;;;;45.60;25.75;;;2.30;99.90;;;;;;5085565;28;20216;-69
2023/01/20 08:51:39;;;;;;;48.90;26.73;;;2.40;99.90;;;;;;5121003;28;20050;-69
2023/01/20 08:54:05;;;;;;;50.05;25.55;;;2.50;99.90;;;;;;5109049;28;20404;-71
2023/01/20 08:56:32;;;;;;;53.40;26.65;;;2.70;99.90;;;;;;5119750;28;20081;-68
2023/01/20 08:58:59;;;;;;;52.33;26.25;;;2.60;99.90;;;;;;5113906;28;20366;-69
2023/01/20 09:01:27;;;;;;;51.35;26.90;;;2.50;99.90;;;;;;5108627;28;20036;-70
2023/01/20 09:03:54;;;;;;;57.22;26.75;;;2.50;99.90;;;;;;5099290;28;20072;-70
2023/01/20 09:06:20;;;;;;;53.35;26.70;;;2.40;99.90;;;;;;5102162;28;20391;-70
2023/01/20 09:08:47;;;;;;;53.97;25.98;;;2.50;99.90;;;;;;5115848;28;20036;-70
2023/01/20 09:11:18;;;;;;;59.55;28.98;;;2.50;99.90;;;;;;5116314;28;20067;-70
2023/01/20 09:13:43;;;;;;;50.45;26.40;;;2.60;99.90;;;;;;5099978;28;20039;-70
2023/01/20 09:16:14;;;;;;;53.08;26.50;;;2.70;99.90;;;;;;5099860;28;20092;-70
2023/01/20 09:18:40;;;;;;;58.33;26.45;;;2.70;99.90;;;;;;5100031;28;20393;-70
2023/01/20 09:21:07;;;;;;;49.80;28.23;;;2.60;99.90;;;;;;5099741;28;20040;-70
2023/01/20 09:23:34;;;;;;;55.45;25.35;;;2.60;99.90;;;;;;5099354;28;20437;-70
2023/01/20 09:26:01;;;;;;;52.15;24.13;;;2.50;99.90;;;;;;5099227;28;20048;-69
2023/01/20 09:28:27;;;;;;;55.22;25.83;;;2.40;99.90;;;;;;5099171;28;20352;-70
2023/01/20 09:31:03;;;;;;;54.63;25.95;;;2.40;99.90;;;;;;5099187;28;20119;-70
2023/01/20 09:33:29;;;;;;;53.38;25.45;;;2.50;99.90;;;;;;5099340;28;20100;-70
2023/01/20 09:35:56;;;;;;;50.70;23.77;;;2.30;99.90;;;;;;5098919;28;20036;-70
2023/01/20 09:44:16;;;;;;;54.70;26.02;;;2.60;99.90;;;;;;5099364;28;20046;-70
2023/01/20 09:47:19;;;;;;;55.40;25.90;;;2.40;99.90;;;;;;5099309;28;20052;-70
2023/01/20 09:55:41;;;;;;;50.30;25.08;;;2.60;99.90;;;;;;5104721;28;20047;-70
2023/01/20 09:58:19;;;;;;;53.63;24.98;;;2.40;99.90;;;;;;5099103;28;20429;-70
2023/01/20 10:00:50;;;;;;;49.55;24.45;;;2.50;99.90;;;;;;5099047;28;20043;-71
2023/01/20 10:03:35;;;;;;;55.50;25.67;;;2.50;99.90;;;;;;5099009;28;20119;-71
2023/01/20 10:06:09;;;;;;;56.05;25.40;;;2.60;99.90;;;;;;5112763;27;20107;-70
2023/01/20 10:08:46;;;;;;;53.50;24.05;;;2.50;99.90;;;;;;5116128;27;20101;-71
2023/01/20 10:11:16;;;;;;;53.88;26.42;;;2.70;99.90;;;;;;5118223;27;20043;-71
2023/01/20 10:14:04;;;;;;;50.10;23.90;;;2.70;99.90;;;;;;5117154;28;20047;-67
2023/01/20 10:17:02;;;;;;;49.40;24.35;;;2.70;99.90;;;;;;5109510;28;20038;-70
2023/01/20 10:19:38;;;;;;;51.60;24.50;;;2.90;99.90;;;;;;5116468;28;20329;-71
2023/01/20 10:22:20;;;;;;;53.33;25.48;;;3.10;99.90;;;;;;5118963;28;20036;-71
2023/01/20 10:24:57;;;;;;;52.58;24.75;;;3.20;99.90;;;;;;5118855;28;20063;-69
2023/01/20 10:27:27;;;;;;;56.50;24.23;;;3.10;99.90;;;;;;5117733;28;20052;-69
2023/01/20 10:30:09;;;;;;;55.45;24.38;;;2.80;99.90;;;;;;5119015;28;20063;-70
2023/01/20 10:32:46;;;;;;;55.50;25.15;;;2.80;99.90;;;;;;5118770;28;20053;-69
2023/01/20 10:35:19;;;;;;;57.42;26.25;;;2.60;99.90;;;;;;5118961;28;20078;-70
2023/01/20 10:37:45;;;;;;;55.33;23.75;;;2.70;99.90;;;;;;5118723;28;20065;-71
2023/01/20 10:40:42;;;;;;;60.30;25.25;;;2.50;99.90;;;;;;5118152;28;20035;-70
2023/01/20 10:43:13;;;;;;;54.72;24.98;;;2.50;99.90;;;;;;5118826;28;20104;-70
2023/01/20 10:46:04;;;;;;;57.17;24.55;;;2.40;99.90;;;;;;5118317;28;20477;-70
2023/01/20 10:48:54;;;;;;;54.67;24.17;;;2.40;99.90;;;;;;5118685;28;20089;-70
2023/01/20 10:51:44;;;;;;;56.53;24.10;;;2.40;99.90;;;;;;5118616;28;20039;-69
2023/01/20 10:54:39;;;;;;;57.50;23.67;;;2.50;99.90;;;;;;5118547;28;20036;-71
2023/01/20 10:57:12;;;;;;;56.95;24.85;;;2.60;99.90;;;;;;5118517;28;20043;-69
2023/01/20 10:59:57;;;;;;;60.13;26.02;;;2.60;99.90;;;;;;5118202;28;20035;-68
2023/01/20 11:02:30;;;;;;;54.95;23.98;;;2.60;99.90;;;;;;5118422;28;20099;-68
2023/01/20 11:05:16;;;;;;;53.30;24.17;;;2.40;99.90;;;;;;5118261;28;20035;-69
2023/01/20 11:07:43;;;;;;;59.13;26.23;;;2.60;99.90;;;;;;5117288;28;20051;-69
2023/01/20 11:10:18;;;;;;;53.35;24.10;;;2.60;99.90;;;;;;5116916;28;20047;-70
2023/01/20 11:12:47;;;;;;;57.60;24.43;;;2.50;99.90;;;;;;5116930;28;20073;-69
2023/01/20 11:15:27;;;;;;;53.72;23.38;;;2.40;99.90;;;;;;5118051;28;20449;-70
2023/01/20 11:18:14;;;;;;;51.40;23.98;;;2.50;99.90;;;;;;5118089;28;20071;-70
2023/01/20 11:20:57;;;;;;;55.15;24.17;;;2.70;99.90;;;;;;5117340;28;20042;-70
2023/01/20 11:23:32;;;;;;;57.88;24.80;;;2.80;99.90;;;;;;5118017;28;20044;-70
2023/01/20 11:26:10;;;;;;;48.45;22.23;;;2.90;99.90;;;;;;5117534;28;20105;-70
2023/01/20 11:28:44;;;;;;;51.92;22.80;;;2.90;99.90;;;;;;5117913;28;20047;-69
2023/01/20 11:31:10;;;;;;;49.45;26.25;;;2.80;99.90;;;;;;5117068;28;20035;-77
2023/01/20 11:33:36;;;;;;;58.58;24.73;;;2.90;99.90;;;;;;5115984;28;20504;-71
2023/01/20 11:36:22;;;;;;;52.22;24.77;;;3.20;99.90;;;;;;5117771;28;20123;-68
2023/01/20 11:38:50;;;;;;;46.05;23.35;;;3.30;99.90;;;;;;5116143;28;20043;-69
2023/01/20 11:41:24;;;;;;;54.08;23.70;;;3.40;99.90;;;;;;5117731;28;20040;-69
2023/01/20 11:44:00;;;;;;;50.90;23.48;;;3.30;99.90;;;;;;5117431;28;20036;-70
2023/01/20 11:46:31;;;;;;;51.33;23.02;;;3.50;99.90;;;;;;5097198;28;20157;-69
2023/01/20 11:49:21;;;;;;;58.97;23.45;;;3.60;99.90;;;;;;5096797;28;20040;-69
2023/01/20 11:51:52;;;;;;;57.67;24.83;;;3.60;99.90;;;;;;5095920;28;20105;-69
2023/01/20 11:54:22;;;;;;;50.90;23.05;;;3.40;99.90;;;;;;5098311;28;20063;-69
2023/01/20 11:56:52;;;;;;;48.40;21.92;;;3.30;99.90;;;;;;5097686;28;20487;-72
2023/01/20 11:59:23;;;;;;;58.97;24.10;;;3.30;99.90;;;;;;5095871;28;20040;-69
2023/01/20 12:01:52;;;;;;;52.22;24.23;;;3.40;99.90;;;;;;5097098;28;20046;-69
2023/01/20 12:04:21;;;;;;;52.15;23.58;;;3.30;99.90;;;;;;5096876;28;20123;-69
2023/01/20 12:06:58;;;;;;;50.95;23.63;;;3.40;99.90;;;;;;5096939;28;20037;-69
2023/01/20 12:09:35;;;;;;;57.35;25.25;;;3.50;99.90;;;;;;5096666;28;20420;-69
2023/01/20 12:12:02;;;;;;;;;;;3.60;99.90;;;;;;5097819;28;20068;-69
2023/01/20 12:15:02;;;;;;;66.55;24.75;;;3.70;99.90;;;;;;5096891;28;20225;-69
2023/01/20 12:17:37;;;;;;;53.25;24.33;;;3.60;99.90;;;;;;5096560;28;20429;-69
2023/01/20 12:20:27;;;;;;;60.35;25.05;;;3.60;99.90;;;;;;5096527;28;20123;-69
2023/01/20 12:23:27;;;;;;;60.13;25.23;;;3.60;99.90;;;;;;5096837;28;20118;-69
2023/01/20 12:26:03;;;;;;;49.58;22.83;;;3.60;99.90;;;;;;5087015;28;20429;-68
2023/01/20 12:28:38;;;;;;;;;;;3.60;99.90;;;;;;5096051;28;20040;-69
2023/01/20 12:31:06;;;;;;;55.08;23.20;;;3.70;99.90;;;;;;5096783;28;19939;-68
2023/01/20 12:33:34;;;;;;;53.17;22.40;;;3.80;99.90;;;;;;5095769;28;20098;-68
2023/01/20 12:36:25;;;;;;;48.00;22.00;;;3.80;99.90;;;;;;5112631;28;20385;-69
2023/01/20 12:39:09;;;;;;;48.58;21.98;;;3.40;99.90;;;;;;5096697;28;20116;-68
2023/01/20 12:42:08;;;;;;;56.42;23.77;;;3.40;99.90;;;;;;5096682;28;20036;-69
2023/01/20 12:44:52;;;;;;;54.50;24.02;;;3.40;99.90;;;;;;5096598;28;20036;-68
2023/01/20 12:47:23;;;;;;;53.03;23.50;;;3.40;99.90;;;;;;5096683;28;20111;-68
2023/01/20 12:50:16;;;;;;;52.85;23.58;;;3.50;99.90;;;;;;5096136;28;20090;-67
2023/01/20 12:53:20;;;;;;;54.90;24.00;;;3.50;99.90;;;;;;5096650;28;20036;-67
2023/01/20 12:56:07;;;;;;;57.75;23.65;;;3.40;99.90;;;;;;5096328;28;20044;-68
2023/01/20 12:58:34;;;;;;;59.88;24.55;;;3.50;99.90;;;;;;5096505;28;20040;-68
2023/01/20 13:01:24;;;;;;;56.40;24.20;;;3.60;99.90;;;;;;5096481;28;20115;-68
2023/01/20 13:04:19;;;;;;;57.97;25.10;;;3.80;99.90;;;;;;5100356;28;20417;-68
2023/01/20 13:06:55;;;;;;;53.08;23.08;;;3.80;99.90;;;;;;5100224;28;20072;-68
2023/01/20 13:09:47;;;;;;;55.28;24.75;;;3.80;99.90;;;;;;5100298;28;20051;-68
2023/01/20 13:12:52;;;;;;;52.42;23.52;;;3.80;99.90;;;;;;5100168;28;20043;-67
2023/01/20 13:15:31;;;;;;;49.60;21.95;;;3.60;99.90;;;;;;5090819;28;20130;-68